createdAt,value
2023-05-13T00:00:00.092Z,97623.02
2023-05-13T00:02:30.690Z,97622.88
2023-05-13T00:04:58.653Z,97616.73
2023-05-13T00:07:26.402Z,97612.10
2023-05-13T00:09:54.336Z,97612.69
2023-05-13T00:12:22.708Z,97612.02
2023-05-13T00:14:50.637Z,97612.91
2023-05-13T00:17:18.500Z,97613.44
2023-05-13T00:19:46.398Z,97611.23
2023-05-13T00:22:14.692Z,97614.80
2023-05-13T00:24:42.623Z,97607.96
2023-05-13T00:27:11.517Z,97610.96
2023-05-13T00:29:39.768Z,97609.34
2023-05-13T00:32:07.878Z,97609.11
2023-05-13T00:34:36.305Z,97612.77
2023-05-13T00:37:05.019Z,97612.99
2023-05-13T00:39:32.877Z,97614.74
2023-05-13T00:42:00.882Z,97616.27
2023-05-13T00:44:28.789Z,97617.48
2023-05-13T00:46:57.344Z,97614.69
2023-05-13T00:49:25.599Z,97614.31
2023-05-13T00:51:55.241Z,97615.23
2023-05-13T00:54:23.227Z,97617.56
2023-05-13T00:56:54.536Z,97619.36
2023-05-13T00:59:24.060Z,97619.23
2023-05-13T01:02:06.618Z,97623.74
2023-05-13T01:04:37.750Z,97623.04
2023-05-13T01:07:09.806Z,97621.30
2023-05-13T01:09:43.696Z,97621.14
2023-05-13T01:12:15.453Z,97624.41
2023-05-13T01:14:52.305Z,97621.54
2023-05-13T01:17:24.647Z,97623.50
2023-05-13T01:19:54.604Z,97625.81
2023-05-13T01:22:22.720Z,97628.23
2023-05-13T01:24:50.719Z,97627.16
2023-05-13T01:27:19.388Z,97626.35
2023-05-13T01:29:47.845Z,97625.04
2023-05-13T01:32:18.188Z,97624.04
2023-05-13T01:34:46.967Z,97626.32
2023-05-13T01:37:16.147Z,97624.77
2023-05-13T01:39:44.783Z,97622.34
2023-05-13T01:42:14.552Z,97620.34
2023-05-13T01:44:43.702Z,97619.00
2023-05-13T01:47:12.174Z,97621.34
2023-05-13T01:49:40.156Z,97622.29
2023-05-13T01:52:08.134Z,97621.65
2023-05-13T01:54:36.041Z,97624.13
2023-05-13T01:57:07.246Z,97622.80
2023-05-13T01:59:35.129Z,97621.29
2023-05-13T02:02:04.219Z,97620.04
2023-05-13T02:04:32.314Z,97619.38
2023-05-13T02:07:00.198Z,97616.78
2023-05-13T02:09:30.403Z,97616.59
2023-05-13T02:11:58.890Z,97617.67
2023-05-13T02:14:26.753Z,97618.21
2023-05-13T02:16:56.015Z,97616.70
2023-05-13T02:19:24.955Z,97614.69
2023-05-13T02:21:52.803Z,97614.38
2023-05-13T02:24:21.621Z,97613.59
2023-05-13T02:26:49.395Z,97611.90
2023-05-13T02:29:17.294Z,97612.46
2023-05-13T02:31:45.064Z,97610.98
2023-05-13T02:34:13.005Z,97609.67
2023-05-13T02:36:41.473Z,97610.20
2023-05-13T02:39:09.900Z,97612.62
2023-05-13T02:41:38.187Z,97614.03
2023-05-13T02:44:06.334Z,97613.33
2023-05-13T02:46:34.545Z,97618.33
2023-05-13T02:49:02.633Z,97618.36
2023-05-13T02:51:32.194Z,97621.55
2023-05-13T02:54:00.548Z,97620.36
2023-05-13T02:56:30.211Z,97618.84
2023-05-13T02:58:59.279Z,97619.07
2023-05-13T03:01:27.393Z,97620.13
2023-05-13T03:03:55.601Z,97621.89
2023-05-13T03:06:23.526Z,97623.30
2023-05-13T03:08:51.429Z,97625.55
2023-05-13T03:11:19.244Z,97627.15
2023-05-13T03:13:46.993Z,97622.35
2023-05-13T03:16:15.726Z,97625.09
2023-05-13T03:18:43.792Z,97625.48
2023-05-13T03:21:11.786Z,97622.02
2023-05-13T03:23:40.165Z,97625.31
2023-05-13T03:26:08.311Z,97624.66
2023-05-13T03:28:36.224Z,97625.21
2023-05-13T03:31:04.652Z,97627.98
2023-05-13T03:33:34.726Z,97631.99
2023-05-13T03:36:02.855Z,97635.84
2023-05-13T03:38:32.625Z,97638.98
2023-05-13T03:41:00.740Z,97642.84
2023-05-13T03:43:29.034Z,97644.40
2023-05-13T03:46:00.218Z,97646.51
2023-05-13T03:48:27.997Z,97648.44
2023-05-13T03:50:56.887Z,97648.25
2023-05-13T03:53:25.000Z,97648.56
2023-05-13T03:55:54.234Z,97652.21
2023-05-13T03:58:22.935Z,97645.65
2023-05-13T04:00:50.999Z,97650.11
2023-05-13T04:03:19.462Z,97651.81
2023-05-13T04:05:48.137Z,97655.27
2023-05-13T04:08:16.099Z,97656.95
2023-05-13T04:10:44.678Z,97657.14
2023-05-13T04:13:12.528Z,97662.99
2023-05-13T04:15:40.425Z,97666.60
2023-05-13T04:18:08.554Z,97667.47
2023-05-13T04:20:40.284Z,97670.58
2023-05-13T04:23:08.350Z,97671.59
2023-05-13T04:25:37.519Z,97674.38
2023-05-13T04:28:05.766Z,97676.96
2023-05-13T04:30:37.579Z,97679.39
2023-05-13T04:33:06.864Z,97678.73
2023-05-13T04:35:35.687Z,97683.20
2023-05-13T04:38:05.173Z,97683.20
2023-05-13T04:40:33.266Z,97686.50
2023-05-13T04:43:06.621Z,97686.54
2023-05-13T04:45:41.590Z,97685.52
2023-05-13T04:48:11.984Z,97690.67
2023-05-13T04:50:44.598Z,97687.69
2023-05-13T04:53:13.210Z,97687.54
2023-05-13T04:55:41.170Z,97688.54
2023-05-13T04:58:09.035Z,97686.48
2023-05-13T05:00:37.521Z,97686.63
2023-05-13T05:03:05.642Z,97692.27
2023-05-13T05:05:33.878Z,97693.73
2023-05-13T05:08:02.091Z,97700.09
2023-05-13T05:10:30.273Z,97700.04
2023-05-13T05:13:00.538Z,97701.36
2023-05-13T05:15:29.976Z,97700.79
2023-05-13T05:18:00.152Z,97699.55
2023-05-13T05:20:28.814Z,97703.65
2023-05-13T05:23:00.223Z,97705.70
2023-05-13T05:25:29.968Z,97704.61
2023-05-13T05:27:58.129Z,97701.77
2023-05-13T05:30:26.415Z,97700.50
2023-05-13T05:33:02.040Z,97698.69
2023-05-13T05:35:30.144Z,97699.29
2023-05-13T05:37:58.640Z,97698.89
2023-05-13T05:40:26.602Z,97699.67
2023-05-13T05:42:54.778Z,97701.50
2023-05-13T05:45:23.011Z,97701.09
2023-05-13T05:47:51.241Z,97701.36
2023-05-13T05:50:19.696Z,97705.10
2023-05-13T05:52:48.098Z,97708.46
2023-05-13T05:55:16.700Z,97709.10
2023-05-13T05:57:44.572Z,97711.44
2023-05-13T06:00:13.055Z,97709.60
2023-05-13T06:02:43.610Z,97711.91
2023-05-13T06:05:13.101Z,97707.67
2023-05-13T06:07:41.500Z,97713.13
2023-05-13T06:10:09.706Z,97713.36
2023-05-13T06:12:37.596Z,97715.15
2023-05-13T06:15:10.655Z,97714.55
2023-05-13T06:17:38.908Z,97714.48
2023-05-13T06:20:07.146Z,97716.95
2023-05-13T06:22:34.989Z,97717.20
2023-05-13T06:25:02.870Z,97714.84
2023-05-13T06:27:31.117Z,97718.52
2023-05-13T06:30:00.789Z,97717.38
2023-05-13T06:32:28.592Z,97720.39
2023-05-13T06:34:56.634Z,97722.48
2023-05-13T06:37:24.857Z,97720.96
2023-05-13T06:39:52.729Z,97719.11
2023-05-13T06:42:20.961Z,97719.00
2023-05-13T06:44:56.337Z,97717.54
2023-05-13T06:47:28.641Z,97720.31
2023-05-13T06:49:56.464Z,97719.20
2023-05-13T06:52:24.246Z,97720.61
2023-05-13T06:54:52.094Z,97719.12
2023-05-13T06:57:20.761Z,97721.45
2023-05-13T06:59:49.854Z,97721.47
2023-05-13T07:02:17.751Z,97727.41
2023-05-13T07:04:45.764Z,97726.13
2023-05-13T07:07:13.901Z,97724.96
2023-05-13T07:09:41.819Z,97724.51
2023-05-13T07:12:11.304Z,97726.65
2023-05-13T07:14:39.295Z,97729.42
2023-05-13T07:17:07.325Z,97729.52
2023-05-13T07:19:35.226Z,97730.87
2023-05-13T07:22:03.112Z,97730.92
2023-05-13T07:24:30.987Z,97732.13
2023-05-13T07:26:58.857Z,97730.92
2023-05-13T07:29:27.673Z,97734.70
2023-05-13T07:31:55.887Z,97733.09
2023-05-13T07:34:23.987Z,97735.50
2023-05-13T07:36:51.921Z,97735.22
2023-05-13T07:39:19.779Z,97736.75
2023-05-13T07:41:47.554Z,97734.46
2023-05-13T07:44:15.821Z,97734.55
2023-05-13T07:46:43.716Z,97736.20
2023-05-13T07:49:11.562Z,97732.39
2023-05-13T07:51:39.421Z,97734.22
2023-05-13T07:54:07.348Z,97735.94
2023-05-13T07:56:35.477Z,97736.29
2023-05-13T07:59:03.604Z,97739.77
2023-05-13T08:01:31.663Z,97741.30
2023-05-13T08:03:59.725Z,97744.58
2023-05-13T08:06:27.984Z,97739.65
2023-05-13T08:08:55.797Z,97740.92
2023-05-13T08:11:23.700Z,97742.56
2023-05-13T08:13:51.906Z,97740.70
2023-05-13T08:16:20.017Z,97741.34
2023-05-13T08:18:47.986Z,97741.02
2023-05-13T08:21:15.874Z,97742.21
2023-05-13T08:23:45.964Z,97742.55
2023-05-13T08:26:14.406Z,97743.94
2023-05-13T08:28:42.755Z,97744.81
2023-05-13T08:31:13.922Z,97742.40
2023-05-13T08:33:42.832Z,97742.02
2023-05-13T08:36:10.896Z,97743.06
2023-05-13T08:38:38.883Z,97736.98
2023-05-13T08:41:06.795Z,97739.72
2023-05-13T08:43:35.233Z,97740.76
2023-05-13T08:46:04.245Z,97740.55
2023-05-13T08:48:33.457Z,97739.66
2023-05-13T08:51:02.544Z,97742.98
2023-05-13T08:53:31.720Z,97743.13
2023-05-13T08:56:00.475Z,97741.77
2023-05-13T08:58:28.410Z,97737.88
2023-05-13T09:00:56.910Z,97739.00
2023-05-13T09:03:27.876Z,97740.50
2023-05-13T09:05:55.745Z,97738.38
2023-05-13T09:08:23.625Z,97737.59
2023-05-13T09:10:51.678Z,97738.46
2023-05-13T09:13:19.537Z,97738.13
2023-05-13T09:15:48.159Z,97736.71
2023-05-13T09:18:18.688Z,97738.81
2023-05-13T09:20:48.305Z,97738.64
2023-05-13T09:23:17.475Z,97739.39
2023-05-13T09:25:45.431Z,97732.67
2023-05-13T09:28:15.200Z,97734.08
2023-05-13T09:30:46.152Z,97731.33
2023-05-13T09:33:15.791Z,97730.34
2023-05-13T09:35:44.859Z,97731.73
2023-05-13T09:38:16.610Z,97733.07
2023-05-13T09:40:54.667Z,97736.48
2023-05-13T09:43:23.593Z,97735.95
2023-05-13T09:45:55.761Z,97737.09
2023-05-13T09:48:25.878Z,97740.88
2023-05-13T09:50:55.409Z,97741.52
2023-05-13T09:53:23.991Z,97742.66
2023-05-13T09:55:53.048Z,97742.07
2023-05-13T09:58:22.075Z,97738.88
2023-05-13T10:00:51.312Z,97739.56
2023-05-13T10:03:19.325Z,97739.50
2023-05-13T10:05:48.714Z,97737.38
2023-05-13T10:08:17.790Z,97736.64
2023-05-13T10:10:46.702Z,97738.50
2023-05-13T10:13:15.858Z,97742.92
2023-05-13T10:15:51.182Z,97738.52
2023-05-13T10:18:20.060Z,97743.34
2023-05-13T10:20:53.211Z,97738.77
2023-05-13T10:23:22.810Z,97743.23
2023-05-13T10:25:52.112Z,97742.48
2023-05-13T10:28:20.508Z,97743.58
2023-05-13T10:30:51.925Z,97742.90
2023-05-13T10:33:20.343Z,97736.11
2023-05-13T10:36:03.868Z,97734.34
2023-05-13T10:38:38.172Z,97735.90
2023-05-13T10:41:22.804Z,97737.05
2023-05-13T10:43:56.845Z,97733.56
2023-05-13T10:46:25.064Z,97733.67
2023-05-13T10:48:58.287Z,97732.36
2023-05-13T10:51:26.904Z,97734.33
2023-05-13T10:53:55.987Z,97737.54
2023-05-13T10:56:25.371Z,97736.90
2023-05-13T10:59:03.725Z,97734.98
2023-05-13T11:01:35.865Z,97731.21
2023-05-13T11:04:05.253Z,97730.00
2023-05-13T11:06:37.574Z,97729.46
2023-05-13T11:09:06.511Z,97728.39
2023-05-13T11:11:35.729Z,97729.06
2023-05-13T11:14:19.411Z,97730.38
2023-05-13T11:16:49.018Z,97731.02
2023-05-13T11:19:25.962Z,97734.92
2023-05-13T11:21:56.317Z,97732.37
2023-05-13T11:24:24.712Z,97735.23
2023-05-13T11:26:56.683Z,97739.81
2023-05-13T11:29:27.828Z,97741.13
2023-05-13T11:32:00.201Z,97736.33
2023-05-13T11:34:29.349Z,97734.79
2023-05-13T11:36:57.483Z,97735.75
2023-05-13T11:39:28.215Z,97734.29
2023-05-13T11:42:01.891Z,97736.40
2023-05-13T11:44:30.176Z,97730.73
2023-05-13T11:46:59.420Z,97735.32
2023-05-13T11:49:41.083Z,97732.45
2023-05-13T11:52:12.865Z,97738.21
2023-05-13T11:54:43.107Z,97736.71
2023-05-13T11:57:32.835Z,97736.80
2023-05-13T12:00:05.529Z,97734.41
2023-05-13T12:02:37.979Z,97730.80
2023-05-13T12:05:07.542Z,97734.18
2023-05-13T12:07:36.437Z,97733.25
2023-05-13T12:10:05.514Z,97727.65
2023-05-13T12:12:34.924Z,97727.27
2023-05-13T12:15:03.933Z,97726.55
2023-05-13T12:17:32.025Z,97724.79
2023-05-13T12:20:11.790Z,97723.92
2023-05-13T12:22:43.089Z,97720.95
2023-05-13T12:25:29.662Z,97717.84
2023-05-13T12:27:57.628Z,97715.72
2023-05-13T12:30:25.920Z,97716.02
2023-05-13T12:32:58.561Z,97713.17
2023-05-13T12:35:26.592Z,97708.45
2023-05-13T12:38:04.779Z,97703.51
2023-05-13T12:40:32.648Z,97696.81
2023-05-13T12:43:01.418Z,97700.21
2023-05-13T12:45:30.597Z,97700.30
2023-05-13T12:47:59.053Z,97701.41
2023-05-13T12:50:27.133Z,97697.67
2023-05-13T12:52:55.020Z,97695.80
2023-05-13T12:55:23.097Z,97692.52
2023-05-13T12:57:59.649Z,97691.23
2023-05-13T13:00:28.097Z,97692.48
2023-05-13T13:02:56.456Z,97688.07
2023-05-13T13:05:25.126Z,97689.86
2023-05-13T13:07:53.300Z,97690.80
2023-05-13T13:10:21.163Z,97690.19
2023-05-13T13:12:49.717Z,97686.61
2023-05-13T13:15:17.684Z,97684.57
2023-05-13T13:17:45.596Z,97682.39
2023-05-13T13:20:13.544Z,97680.52
2023-05-13T13:22:41.623Z,97681.60
2023-05-13T13:25:09.704Z,97679.64
2023-05-13T13:27:37.696Z,97677.20
2023-05-13T13:30:05.896Z,97675.61
2023-05-13T13:32:35.553Z,97674.71
2023-05-13T13:35:05.714Z,97675.68
2023-05-13T13:37:34.304Z,97678.41
2023-05-13T13:40:03.652Z,97677.23
2023-05-13T13:42:43.350Z,97676.42
2023-05-13T13:45:13.470Z,97674.19
2023-05-13T13:47:41.866Z,97670.98
2023-05-13T13:50:10.111Z,97669.00
2023-05-13T13:52:38.037Z,97669.83
2023-05-13T13:55:06.394Z,97671.50
2023-05-13T13:57:34.380Z,97673.38
2023-05-13T14:00:02.283Z,97670.08
2023-05-13T14:02:33.068Z,97671.09
2023-05-13T14:05:01.251Z,97675.13
2023-05-13T14:07:29.025Z,97675.30
2023-05-13T14:09:58.458Z,97678.33
2023-05-13T14:12:27.540Z,97681.33
2023-05-13T14:14:55.457Z,97677.05
2023-05-13T14:17:23.493Z,97672.06
2023-05-13T14:19:51.937Z,97672.31
2023-05-13T14:22:19.802Z,97669.12
2023-05-13T14:24:48.014Z,97672.04
2023-05-13T14:27:16.104Z,97675.44
2023-05-13T14:29:45.603Z,97674.69
2023-05-13T14:32:13.870Z,97673.42
2023-05-13T14:34:42.500Z,97675.20
2023-05-13T14:37:10.442Z,97672.27
2023-05-13T14:39:38.210Z,97675.27
2023-05-13T14:42:06.598Z,97678.08
2023-05-13T14:44:34.480Z,97684.21
2023-05-13T14:47:02.679Z,97686.70
2023-05-13T14:49:30.645Z,97685.18
2023-05-13T14:51:58.452Z,97683.11
2023-05-13T14:54:26.177Z,97684.25
2023-05-13T14:56:54.037Z,97682.83
2023-05-13T14:59:21.911Z,97681.84
2023-05-13T15:01:49.723Z,97683.49
2023-05-13T15:04:17.533Z,97680.84
2023-05-13T15:06:45.431Z,97684.25
2023-05-13T15:09:13.199Z,97682.86
2023-05-13T15:11:42.248Z,97682.96
2023-05-13T15:14:10.168Z,97685.42
2023-05-13T15:16:38.041Z,97685.42
2023-05-13T15:19:07.291Z,97686.55
2023-05-13T15:21:35.322Z,97687.69
2023-05-13T15:24:03.193Z,97688.64
2023-05-13T15:26:31.093Z,97685.81
2023-05-13T15:28:58.896Z,97682.71
2023-05-13T15:31:26.860Z,97686.67
2023-05-13T15:33:54.691Z,97684.44
2023-05-13T15:36:22.571Z,97682.65
2023-05-13T15:38:50.349Z,97679.27
2023-05-13T15:41:18.154Z,97677.56
2023-05-13T15:43:45.945Z,97673.95
2023-05-13T15:46:14.099Z,97673.28
2023-05-13T15:48:42.064Z,97673.27
2023-05-13T15:51:09.990Z,97672.69
2023-05-13T15:53:37.853Z,97668.75
2023-05-13T15:56:05.879Z,97667.92
2023-05-13T15:58:33.805Z,97668.04
2023-05-13T16:01:01.581Z,97668.66
2023-05-13T16:03:29.337Z,97671.60
2023-05-13T16:05:57.346Z,97675.26
2023-05-13T16:08:25.278Z,97673.70
2023-05-13T16:10:53.209Z,97677.37
2023-05-13T16:13:21.632Z,97677.11
2023-05-13T16:15:49.827Z,97674.86
2023-05-13T16:18:17.627Z,97675.42
2023-05-13T16:20:45.678Z,97674.69
2023-05-13T16:23:13.495Z,97673.77
2023-05-13T16:25:42.756Z,97673.06
2023-05-13T16:28:10.830Z,97671.62
2023-05-13T16:30:39.473Z,97670.21
2023-05-13T16:33:09.551Z,97670.02
2023-05-13T16:35:37.627Z,97670.91
2023-05-13T16:38:05.892Z,97670.19
2023-05-13T16:40:33.879Z,97671.95
2023-05-13T16:43:03.930Z,97672.09
2023-05-13T16:45:32.220Z,97672.95
2023-05-13T16:48:00.194Z,97677.99
2023-05-13T16:50:29.247Z,97675.59
2023-05-13T16:52:57.227Z,97678.05
2023-05-13T16:55:26.238Z,97673.50
2023-05-13T16:57:54.202Z,97673.28
2023-05-13T17:00:22.420Z,97673.98
2023-05-13T17:02:50.768Z,97666.89
2023-05-13T17:05:18.719Z,97665.84
2023-05-13T17:07:46.701Z,97664.56
2023-05-13T17:10:14.603Z,97662.17
2023-05-13T17:12:42.752Z,97663.05
2023-05-13T17:15:11.205Z,97661.27
2023-05-13T17:17:38.983Z,97664.51
2023-05-13T17:20:07.291Z,97662.02
2023-05-13T17:22:35.176Z,97664.17
2023-05-13T17:25:03.023Z,97669.30
2023-05-13T17:27:31.011Z,97672.02
2023-05-13T17:29:58.851Z,97675.65
2023-05-13T17:32:26.727Z,97678.66
2023-05-13T17:34:54.536Z,97679.36
2023-05-13T17:37:22.405Z,97675.67
2023-05-13T17:39:50.356Z,97677.52
2023-05-13T17:42:18.183Z,97676.42
2023-05-13T17:44:46.123Z,97675.57
2023-05-13T17:47:14.830Z,97676.27
2023-05-13T17:49:42.782Z,97678.04
2023-05-13T17:52:10.632Z,97679.38
2023-05-13T17:54:38.844Z,97676.50
2023-05-13T17:57:07.017Z,97672.09
2023-05-13T17:59:34.779Z,97674.65
2023-05-13T18:02:02.728Z,97680.11
2023-05-13T18:04:30.630Z,97675.39
2023-05-13T18:06:58.662Z,97675.84
2023-05-13T18:09:26.684Z,97677.71
2023-05-13T18:11:54.511Z,97677.14
2023-05-13T18:14:22.423Z,97675.78
2023-05-13T18:16:50.683Z,97677.38
2023-05-13T18:19:18.821Z,97678.98
2023-05-13T18:21:46.920Z,97679.61
2023-05-13T18:24:14.672Z,97676.64
2023-05-13T18:26:42.472Z,97680.07
2023-05-13T18:29:10.562Z,97683.52
2023-05-13T18:31:38.465Z,97685.94
2023-05-13T18:34:06.354Z,97691.79
2023-05-13T18:36:34.114Z,97693.48
2023-05-13T18:39:02.172Z,97696.21
2023-05-13T18:41:30.045Z,97697.29
2023-05-13T18:43:57.889Z,97695.38
2023-05-13T18:46:25.982Z,97697.74
2023-05-13T18:48:53.854Z,97702.38
2023-05-13T18:51:21.793Z,97701.23
2023-05-13T18:53:49.715Z,97700.77
2023-05-13T18:56:17.657Z,97702.07
2023-05-13T18:58:46.650Z,97702.20
2023-05-13T19:01:15.813Z,97702.64
2023-05-13T19:03:43.893Z,97697.36
2023-05-13T19:06:12.078Z,97697.32
2023-05-13T19:08:40.009Z,97694.27
2023-05-13T19:11:08.245Z,97698.67
2023-05-13T19:13:46.594Z,97700.08
2023-05-13T19:16:15.761Z,97698.46
2023-05-13T19:18:43.906Z,97701.14
2023-05-13T19:21:11.873Z,97699.33
2023-05-13T19:23:39.830Z,97693.71
2023-05-13T19:26:08.517Z,97698.36
2023-05-13T19:28:37.505Z,97700.78
2023-05-13T19:31:06.312Z,97701.77
2023-05-13T19:33:37.045Z,97701.36
2023-05-13T19:36:06.757Z,97707.02
2023-05-13T19:38:35.313Z,97704.59
2023-05-13T19:41:03.420Z,97706.74
2023-05-13T19:43:31.271Z,97708.22
2023-05-13T19:45:59.266Z,97710.60
2023-05-13T19:48:29.133Z,97709.48
2023-05-13T19:50:58.600Z,97708.08
2023-05-13T19:53:26.749Z,97706.14
2023-05-13T19:55:55.578Z,97714.27
2023-05-13T19:58:23.545Z,97715.25
2023-05-13T20:00:51.511Z,97717.67
2023-05-13T20:03:19.403Z,97721.22
2023-05-13T20:05:48.743Z,97720.23
2023-05-13T20:08:16.632Z,97722.48
2023-05-13T20:10:44.672Z,97728.98
2023-05-13T20:13:12.608Z,97729.91
2023-05-13T20:15:40.643Z,97730.43
2023-05-13T20:18:08.533Z,97729.36
2023-05-13T20:20:36.536Z,97725.63
2023-05-13T20:23:04.524Z,97723.89
2023-05-13T20:25:32.384Z,97721.66
2023-05-13T20:28:00.264Z,97714.34
2023-05-13T20:30:28.138Z,97710.27
2023-05-13T20:32:55.961Z,97708.95
2023-05-13T20:35:23.963Z,97709.03
2023-05-13T20:37:51.797Z,97706.47
2023-05-13T20:40:19.724Z,97708.87
2023-05-13T20:42:47.989Z,97710.81
2023-05-13T20:45:16.078Z,97712.30
2023-05-13T20:47:43.865Z,97706.46
2023-05-13T20:50:12.010Z,97709.37
2023-05-13T20:52:39.818Z,97708.52
2023-05-13T20:55:08.156Z,97705.57
2023-05-13T20:57:35.936Z,97703.66
2023-05-13T21:00:04.323Z,97700.23
2023-05-13T21:02:32.148Z,97699.07
2023-05-13T21:05:00.256Z,97696.67
2023-05-13T21:07:28.073Z,97696.35
2023-05-13T21:09:55.969Z,97698.45
2023-05-13T21:12:24.287Z,97694.16
2023-05-13T21:14:52.175Z,97689.71
2023-05-13T21:17:21.575Z,97686.31
2023-05-13T21:19:49.978Z,97684.60
2023-05-13T21:22:17.901Z,97685.25
2023-05-13T21:24:46.560Z,97686.15
2023-05-13T21:27:14.510Z,97687.84
2023-05-13T21:29:42.304Z,97688.52
2023-05-13T21:32:10.251Z,97686.23
2023-05-13T21:34:38.143Z,97685.02
2023-05-13T21:37:06.277Z,97688.64
2023-05-13T21:39:34.055Z,97688.71
2023-05-13T21:42:01.838Z,97688.29
2023-05-13T21:44:29.708Z,97695.17
2023-05-13T21:46:57.821Z,97696.88
2023-05-13T21:49:25.747Z,97695.90
2023-05-13T21:51:53.632Z,97695.79
2023-05-13T21:54:21.537Z,97695.60
2023-05-13T21:56:49.674Z,97698.73
2023-05-13T21:59:17.873Z,97700.83
2023-05-13T22:01:46.146Z,97704.11
2023-05-13T22:04:14.089Z,97701.20
2023-05-13T22:06:42.028Z,97699.33
2023-05-13T22:09:09.843Z,97696.54
2023-05-13T22:11:37.839Z,97692.48
2023-05-13T22:14:05.693Z,97692.48
2023-05-13T22:16:33.584Z,97695.33
2023-05-13T22:19:01.502Z,97691.86
2023-05-13T22:21:29.430Z,97692.02
2023-05-13T22:23:57.268Z,97692.89
2023-05-13T22:26:25.098Z,97691.86
2023-05-13T22:28:52.977Z,97693.70
2023-05-13T22:31:21.152Z,97692.80
2023-05-13T22:33:48.948Z,97693.52
2023-05-13T22:36:16.735Z,97692.50
2023-05-13T22:38:44.520Z,97694.75
2023-05-13T22:41:12.865Z,97690.26
2023-05-13T22:43:40.789Z,97690.38
2023-05-13T22:46:08.798Z,97694.00
2023-05-13T22:48:36.737Z,97695.02
2023-05-13T22:51:04.716Z,97690.23
2023-05-13T22:53:32.714Z,97686.91
2023-05-13T22:56:00.993Z,97686.83
2023-05-13T22:58:28.811Z,97687.50
2023-05-13T23:00:56.608Z,97682.14
2023-05-13T23:03:24.590Z,97685.55
2023-05-13T23:05:52.562Z,97684.22
2023-05-13T23:08:20.408Z,97683.65
2023-05-13T23:10:48.224Z,97682.77
2023-05-13T23:13:16.016Z,97678.47
2023-05-13T23:15:44.096Z,97680.39
2023-05-13T23:18:12.183Z,97679.34
2023-05-13T23:20:40.188Z,97683.04
2023-05-13T23:23:08.215Z,97682.83
2023-05-13T23:25:36.142Z,97683.06
2023-05-13T23:28:03.948Z,97683.92
2023-05-13T23:30:31.831Z,97684.19
2023-05-13T23:32:59.794Z,97688.61
2023-05-13T23:35:27.961Z,97687.98
2023-05-13T23:37:55.901Z,97689.60
2023-05-13T23:40:24.160Z,97688.95
2023-05-13T23:42:52.459Z,97686.09
2023-05-13T23:45:20.895Z,97688.54
2023-05-13T23:47:49.953Z,97687.80
2023-05-13T23:50:18.141Z,97684.48
2023-05-13T23:52:51.141Z,97677.50
2023-05-13T23:55:21.822Z,97676.96
2023-05-13T23:57:49.732Z,97676.04
